East Deerfield, Massachusetts
Current Conditions -  °F | °C
As of 2:52 AM on Wednesday 26 Nov 2014 (Local Time) from KORE Reporting Station
Clear Clear  
Wind Chill: 30°   Ceiling: Unl
Heat Index: 36°   Visibility: 10mi
Dew Point: 30°   Wind: 8mph
Humidity: 79%   Direction: 270°W
Pressure: 30.17"   Gusts: NA
Location:  42.5381°N, 72.6067°W
Report Text: KORE 260752Z AUTO 27007KT 10SM CLR 02/M01 A3017 RMK AO2 SLP220 T00221011
Loading
Personal Weather Stations






























Interactive Weather Map New forecast layout! Learn more

10-Day Weather Forecast

Advertisements
Track Severe Weather on mobile